Time;durP1;ratioP1;P1;durP2;ratioP2;P2;SDS_P1;SDS_P2;PMS_P1;PMS_P2;Temp;Humidity;BMP_temperature;BMP_pressure;BME280_temperature;BME280_humidity;BME280_pressure;Samples;Min_cycle;Max_cycle;Signal;HPM_P1;HPM_P2
2021/09/13 00:02:07;;;;;;;12.83;11.73;;;18.00;99.90;;;;;;4977296;28;20970;-68
2021/09/13 00:04:33;;;;;;;11.40;10.53;;;18.10;99.90;;;;;;4993647;28;20226;-69
2021/09/13 00:06:59;;;;;;;12.73;11.50;;;18.00;99.90;;;;;;4995362;28;20466;-68
2021/09/13 00:09:25;;;;;;;12.47;11.23;;;18.10;99.90;;;;;;4994919;28;20808;-68
2021/09/13 00:11:52;;;;;;;12.70;11.60;;;18.10;99.90;;;;;;4995669;28;20686;-68
2021/09/13 00:14:18;;;;;;;11.77;10.87;;;18.10;99.90;;;;;;4977032;28;20179;-68
2021/09/13 00:16:44;;;;;;;11.77;10.87;;;18.10;99.90;;;;;;4995069;28;20419;-68
2021/09/13 00:19:10;;;;;;;12.73;11.70;;;18.00;99.90;;;;;;4993534;28;20421;-73
2021/09/13 00:21:35;;;;;;;12.37;11.27;;;18.00;99.90;;;;;;4993942;28;20172;-68
2021/09/13 00:24:01;;;;;;;12.33;11.23;;;18.00;99.90;;;;;;4993536;28;20238;-68
2021/09/13 00:26:27;;;;;;;12.63;11.43;;;18.00;99.90;;;;;;4993262;28;20216;-68
2021/09/13 00:28:53;;;;;;;11.90;10.70;;;18.00;99.90;;;;;;4993615;28;20172;-68
2021/09/13 00:31:19;;;;;;;12.23;11.23;;;18.00;99.90;;;;;;4992961;28;20542;-68
2021/09/13 00:33:44;;;;;;;12.70;11.60;;;18.00;99.90;;;;;;4993695;28;20266;-69
2021/09/13 00:36:10;;;;;;;12.70;11.60;;;18.00;99.90;;;;;;4977256;28;20411;-73
2021/09/13 00:38:36;;;;;;;11.67;10.87;;;17.90;99.90;;;;;;4994519;28;20337;-68
2021/09/13 00:41:02;;;;;;;13.50;12.30;;;17.90;99.90;;;;;;4994962;28;20326;-68
2021/09/13 00:43:28;;;;;;;12.43;11.53;;;18.00;99.90;;;;;;4993798;28;20184;-69
2021/09/13 00:45:54;;;;;;;11.57;10.53;;;18.00;99.90;;;;;;4992750;28;20207;-69
2021/09/13 00:48:20;;;;;;;11.60;10.60;;;17.90;99.90;;;;;;4993055;28;20172;-68
2021/09/13 00:50:45;;;;;;;12.63;11.57;;;17.90;99.90;;;;;;4993621;28;20515;-68
2021/09/13 00:53:11;;;;;;;11.87;10.77;;;17.90;99.90;;;;;;4992858;28;20179;-74
2021/09/13 00:55:37;;;;;;;11.77;10.87;;;17.80;99.90;;;;;;4992925;28;20469;-69
2021/09/13 00:58:03;;;;;;;11.43;10.50;;;17.90;99.90;;;;;;4993689;28;20866;-68
2021/09/13 01:00:29;;;;;;;11.57;10.67;;;17.90;99.90;;;;;;4991899;28;20459;-69
2021/09/13 01:02:55;;;;;;;11.93;11.00;;;17.90;99.90;;;;;;4993467;28;20179;-69
2021/09/13 01:05:21;;;;;;;12.80;11.80;;;17.90;99.90;;;;;;4992290;28;20679;-68
2021/09/13 01:07:46;;;;;;;12.20;11.23;;;17.80;99.90;;;;;;4993229;28;20565;-68
2021/09/13 01:10:12;;;;;;;13.07;12.03;;;17.90;99.90;;;;;;4992852;28;20179;-73
2021/09/13 01:12:38;;;;;;;12.13;11.10;;;17.90;99.90;;;;;;4993062;28;20203;-69
2021/09/13 01:15:05;;;;;;;11.87;10.97;;;17.80;99.90;;;;;;4972971;28;20942;-69
2021/09/13 01:17:31;;;;;;;12.37;11.10;;;17.90;99.90;;;;;;4992545;28;20175;-69
2021/09/13 01:19:57;;;;;;;12.87;11.87;;;17.90;99.90;;;;;;4993493;28;20415;-68
2021/09/13 01:22:25;;;;;;;12.10;11.20;;;17.90;99.90;;;;;;4993571;28;20175;-68
2021/09/13 01:24:51;;;;;;;11.67;10.77;;;17.90;99.90;;;;;;4994310;28;20505;-68
2021/09/13 01:27:17;;;;;;;12.60;11.50;;;17.90;99.90;;;;;;4993487;28;20494;-68
2021/09/13 01:29:43;;;;;;;11.63;10.83;;;17.90;99.90;;;;;;4994178;28;20628;-68
2021/09/13 01:32:09;;;;;;;12.10;11.20;;;17.90;99.90;;;;;;4993720;28;20180;-68
2021/09/13 01:34:35;;;;;;;11.73;10.83;;;18.00;99.90;;;;;;4959880;28;20183;-68
2021/09/13 01:37:00;;;;;;;12.60;11.70;;;18.00;99.90;;;;;;4994193;28;20468;-68
2021/09/13 01:39:26;;;;;;;12.03;11.03;;;18.00;99.90;;;;;;4992823;28;20183;-68
2021/09/13 01:41:52;;;;;;;12.40;11.20;;;18.00;99.90;;;;;;4994053;28;20282;-68
2021/09/13 01:44:18;;;;;;;12.90;11.67;;;18.00;99.90;;;;;;4975710;28;20407;-69
2021/09/13 01:46:44;;;;;;;12.57;11.57;;;18.00;99.90;;;;;;4993658;28;20667;-68
2021/09/13 01:49:11;;;;;;;11.83;10.83;;;18.00;99.90;;;;;;4974519;28;20173;-68
2021/09/13 01:51:38;;;;;;;13.07;11.87;;;18.10;99.90;;;;;;4973995;28;20416;-68
2021/09/13 01:54:05;;;;;;;12.63;11.63;;;18.10;99.90;;;;;;4956872;28;20827;-68
2021/09/13 01:56:30;;;;;;;13.27;12.17;;;18.10;99.90;;;;;;4973889;28;20416;-69
2021/09/13 01:58:58;;;;;;;12.50;11.30;;;18.10;99.90;;;;;;4974045;28;20412;-68
2021/09/13 02:01:27;;;;;;;12.33;11.33;;;18.10;99.90;;;;;;4984288;28;20183;-68
2021/09/13 02:03:53;;;;;;;11.10;10.20;;;18.10;99.90;;;;;;4993447;28;20766;-68
2021/09/13 02:06:19;;;;;;;12.60;11.70;;;18.10;99.90;;;;;;4992100;28;20481;-68
2021/09/13 02:08:46;;;;;;;11.63;10.77;;;18.10;99.90;;;;;;4993507;28;20431;-68
2021/09/13 02:11:11;;;;;;;12.33;11.03;;;18.10;99.90;;;;;;4975362;28;20399;-68
2021/09/13 02:13:38;;;;;;;11.43;10.43;;;18.10;99.90;;;;;;4992673;28;20489;-69
2021/09/13 02:16:05;;;;;;;11.73;10.83;;;18.10;99.90;;;;;;4993208;28;20186;-68
2021/09/13 02:18:31;;;;;;;12.27;11.30;;;18.10;99.90;;;;;;4975347;28;20442;-68
2021/09/13 02:20:57;;;;;;;11.67;10.87;;;18.10;99.90;;;;;;4975822;28;20422;-68
2021/09/13 02:23:23;;;;;;;11.67;10.67;;;18.00;99.90;;;;;;4992587;28;20413;-68
2021/09/13 02:25:49;;;;;;;11.77;10.57;;;18.00;99.90;;;;;;4993252;28;20275;-68
2021/09/13 02:28:15;;;;;;;11.97;11.07;;;18.00;99.90;;;;;;4975665;28;20418;-72
2021/09/13 02:30:41;;;;;;;13.50;12.37;;;17.90;99.90;;;;;;4992139;28;20422;-68
2021/09/13 02:33:06;;;;;;;12.67;11.40;;;17.90;99.90;;;;;;4993212;28;20183;-68
2021/09/13 02:35:32;;;;;;;12.10;11.20;;;17.80;99.90;;;;;;4992433;28;20608;-68
2021/09/13 02:37:58;;;;;;;12.97;11.63;;;17.80;99.90;;;;;;4992869;28;20172;-68
2021/09/13 02:40:24;;;;;;;12.70;11.60;;;17.80;99.90;;;;;;4983659;28;20179;-68
2021/09/13 02:42:50;;;;;;;11.83;10.90;;;17.80;99.90;;;;;;4975842;28;20450;-68
2021/09/13 02:45:16;;;;;;;12.10;11.20;;;17.80;99.90;;;;;;4975315;28;20455;-73
2021/09/13 02:47:42;;;;;;;11.97;10.80;;;17.80;99.90;;;;;;4992882;28;20188;-68
2021/09/13 02:50:09;;;;;;;12.87;11.83;;;17.70;99.90;;;;;;4992611;28;20419;-68
2021/09/13 02:52:35;;;;;;;13.10;11.77;;;17.40;99.90;;;;;;4992063;28;20415;-68
2021/09/13 02:55:01;;;;;;;12.50;11.40;;;17.30;99.90;;;;;;4992869;28;20399;-68
2021/09/13 02:57:27;;;;;;;11.70;10.70;;;17.30;99.90;;;;;;4992119;28;20407;-68
2021/09/13 02:59:53;;;;;;;11.60;10.70;;;17.40;99.90;;;;;;4992738;28;20415;-68
2021/09/13 03:02:18;;;;;;;12.40;11.20;;;17.40;99.90;;;;;;4992397;28;20218;-73
2021/09/13 03:04:44;;;;;;;12.33;11.23;;;17.40;99.90;;;;;;4992571;28;20227;-66
2021/09/13 03:07:13;;;;;;;12.10;10.87;;;17.40;99.90;;;;;;4992506;28;20219;-68
2021/09/13 03:09:39;;;;;;;12.10;11.10;;;17.40;99.90;;;;;;4960105;28;20180;-68
2021/09/13 03:12:06;;;;;;;12.70;11.70;;;17.30;99.90;;;;;;4991429;28;20427;-68
2021/09/13 03:14:32;;;;;;;13.33;12.20;;;17.30;99.90;;;;;;4991041;28;20430;-68
2021/09/13 03:16:58;;;;;;;12.80;11.80;;;17.20;99.90;;;;;;4992444;28;20418;-68
2021/09/13 03:19:23;;;;;;;13.43;12.23;;;17.20;99.90;;;;;;4991833;28;20418;-68
2021/09/13 03:21:49;;;;;;;12.27;11.33;;;17.20;99.90;;;;;;4992574;28;20180;-68
2021/09/13 03:24:15;;;;;;;12.87;11.57;;;17.10;99.90;;;;;;4996370;28;20171;-68
2021/09/13 03:26:41;;;;;;;12.63;11.53;;;17.20;99.90;;;;;;4995823;28;20622;-68
2021/09/13 03:29:07;;;;;;;13.20;12.07;;;17.20;99.90;;;;;;4996542;28;20518;-68
2021/09/13 03:31:33;;;;;;;12.80;11.80;;;17.10;99.90;;;;;;4996017;28;20635;-68
2021/09/13 03:33:58;;;;;;;13.30;12.20;;;17.10;99.90;;;;;;4996417;28;20410;-68
2021/09/13 03:36:24;;;;;;;12.80;11.43;;;17.10;99.90;;;;;;4995747;28;20179;-69
2021/09/13 03:38:50;;;;;;;13.00;12.00;;;17.10;99.90;;;;;;4996091;28;20214;-68
2021/09/13 03:41:16;;;;;;;13.30;12.10;;;17.20;99.90;;;;;;4996049;28;20184;-68
2021/09/13 03:43:42;;;;;;;12.83;11.83;;;17.10;99.90;;;;;;4995527;28;20175;-69
2021/09/13 03:46:07;;;;;;;13.30;12.10;;;17.20;99.90;;;;;;4996164;28;20454;-68
2021/09/13 03:48:33;;;;;;;12.00;10.90;;;17.20;99.90;;;;;;4994901;28;20187;-68
2021/09/13 03:50:59;;;;;;;12.07;11.00;;;17.20;99.90;;;;;;4995869;28;20258;-68
2021/09/13 03:53:25;;;;;;;10.97;10.07;;;17.30;99.90;;;;;;4995321;28;20175;-68
2021/09/13 03:55:50;;;;;;;11.60;10.60;;;17.30;99.90;;;;;;4995855;28;20218;-68
2021/09/13 03:58:16;;;;;;;11.33;10.50;;;17.30;99.90;;;;;;4996270;28;20176;-68
2021/09/13 04:00:42;;;;;;;13.20;12.10;;;17.20;99.90;;;;;;4994627;28;20535;-68
2021/09/13 04:03:13;;;;;;;13.60;12.30;;;17.20;99.90;;;;;;4995490;28;20661;-68
2021/09/13 04:05:43;;;;;;;13.27;12.03;;;17.20;99.90;;;;;;4994912;28;20584;-68
2021/09/13 04:11:16;;;;;;;12.60;11.30;;;17.10;99.90;;;;;;4995085;28;20462;-68
2021/09/13 04:13:42;;;;;;;12.33;11.27;;;17.20;99.90;;;;;;4994950;28;21026;-68
2021/09/13 04:16:08;;;;;;;12.73;11.50;;;17.20;99.90;;;;;;4995508;28;20464;-68
2021/09/13 04:18:34;;;;;;;14.07;12.80;;;17.20;99.90;;;;;;4994956;28;20179;-69
2021/09/13 04:21:00;;;;;;;13.00;12.00;;;17.20;99.90;;;;;;4995437;28;20183;-68
2021/09/13 04:23:25;;;;;;;11.87;10.97;;;17.20;99.90;;;;;;4994650;28;20182;-68
2021/09/13 04:25:51;;;;;;;11.27;10.40;;;17.20;99.90;;;;;;4995432;28;20462;-68
2021/09/13 04:28:17;;;;;;;11.33;10.33;;;17.10;99.90;;;;;;4995513;28;20176;-68
2021/09/13 04:30:43;;;;;;;12.13;11.03;;;17.10;99.90;;;;;;4994370;28;20863;-68
2021/09/13 04:33:08;;;;;;;13.47;12.07;;;17.10;99.90;;;;;;4977725;28;20191;-68
2021/09/13 04:35:34;;;;;;;12.60;11.50;;;17.10;99.90;;;;;;4993267;28;20591;-68
2021/09/13 04:37:59;;;;;;;12.53;11.50;;;17.10;99.90;;;;;;4995407;28;20542;-68
2021/09/13 04:40:25;;;;;;;14.87;13.40;;;17.10;99.90;;;;;;4994453;28;20187;-71
2021/09/13 04:42:51;;;;;;;13.33;12.30;;;17.10;99.90;;;;;;4995293;28;20183;-68
2021/09/13 04:45:17;;;;;;;14.27;12.97;;;17.10;99.90;;;;;;4994863;28;20199;-68
2021/09/13 04:47:42;;;;;;;13.77;12.57;;;17.10;99.90;;;;;;4994393;28;21032;-68
2021/09/13 04:50:09;;;;;;;12.57;11.47;;;17.10;99.90;;;;;;4995008;28;20167;-68
2021/09/13 04:52:34;;;;;;;13.17;12.07;;;17.20;99.90;;;;;;4994305;28;20192;-69
2021/09/13 04:55:00;;;;;;;13.10;11.73;;;17.10;99.90;;;;;;4994972;28;20502;-68
2021/09/13 04:57:26;;;;;;;12.57;11.37;;;17.10;99.90;;;;;;4993884;28;20573;-73
2021/09/13 04:59:51;;;;;;;12.00;11.00;;;17.10;99.90;;;;;;4994196;28;20200;-68
2021/09/13 05:02:17;;;;;;;13.43;12.03;;;17.10;99.90;;;;;;4977870;28;20226;-68
2021/09/13 05:04:43;;;;;;;14.50;13.30;;;17.10;99.90;;;;;;4993518;28;20239;-68
2021/09/13 05:07:09;;;;;;;13.73;12.53;;;17.10;99.90;;;;;;4994457;28;20215;-68
2021/09/13 05:09:35;;;;;;;11.93;10.27;;;17.10;99.90;;;;;;4993780;28;20199;-67
2021/09/13 05:12:00;;;;;;;15.87;14.57;;;17.10;99.90;;;;;;4993920;28;20403;-68
2021/09/13 05:14:26;;;;;;;12.23;11.23;;;17.10;99.90;;;;;;4976138;28;20650;-71
2021/09/13 05:16:52;;;;;;;13.80;12.60;;;17.30;99.90;;;;;;4994081;28;20413;-68
2021/09/13 05:19:18;;;;;;;13.03;12.03;;;17.60;99.90;;;;;;4994281;28;20175;-67
2021/09/13 05:21:43;;;;;;;12.70;11.70;;;17.80;99.90;;;;;;4993494;28;20518;-66
2021/09/13 05:24:09;;;;;;;13.10;12.00;;;17.80;99.90;;;;;;4993264;28;20416;-66
2021/09/13 05:26:35;;;;;;;13.13;11.93;;;17.80;99.90;;;;;;4993283;28;20214;-67
2021/09/13 05:29:01;;;;;;;15.07;13.67;;;17.70;99.90;;;;;;4993923;28;20631;-67
2021/09/13 05:31:26;;;;;;;16.27;14.97;;;17.70;99.90;;;;;;4993373;28;20623;-70
2021/09/13 05:33:52;;;;;;;14.90;13.57;;;17.60;99.90;;;;;;4994390;28;20396;-66
2021/09/13 05:36:18;;;;;;;14.47;13.07;;;17.50;99.90;;;;;;4994014;28;20188;-67
2021/09/13 05:38:44;;;;;;;14.37;13.27;;;17.40;99.90;;;;;;4993074;28;20249;-67
2021/09/13 05:41:12;;;;;;;15.13;13.83;;;17.30;99.90;;;;;;4993847;28;20442;-67
2021/09/13 05:43:38;;;;;;;14.63;13.23;;;17.20;99.90;;;;;;4992959;28;20415;-66
2021/09/13 05:46:04;;;;;;;15.80;14.40;;;17.20;99.90;;;;;;4993364;28;20465;-67
2021/09/13 05:48:29;;;;;;;15.87;14.57;;;17.10;99.90;;;;;;4992518;28;20299;-67
2021/09/13 05:50:55;;;;;;;14.20;12.90;;;17.10;99.90;;;;;;4975195;28;20419;-68
2021/09/13 05:53:21;;;;;;;15.37;13.80;;;17.10;99.90;;;;;;4992290;28;20418;-67
2021/09/13 05:55:48;;;;;;;16.37;14.27;;;17.00;99.90;;;;;;4991255;28;20175;-68
2021/09/13 05:58:13;;;;;;;15.60;14.10;;;17.00;99.90;;;;;;4974620;28;20211;-67
2021/09/13 06:00:40;;;;;;;15.17;13.70;;;17.00;99.90;;;;;;4988137;28;20454;-68
2021/09/13 06:03:08;;;;;;;14.63;13.23;;;17.00;99.90;;;;;;4973422;28;20175;-67
2021/09/13 06:05:34;;;;;;;14.30;12.90;;;16.90;99.90;;;;;;4968205;28;20504;-67
2021/09/13 06:08:00;;;;;;;14.00;12.70;;;16.80;99.90;;;;;;4969531;28;20419;-66
2021/09/13 06:10:26;;;;;;;14.97;13.60;;;16.70;99.90;;;;;;4992063;28;20422;-70
2021/09/13 06:12:51;;;;;;;13.67;12.57;;;16.70;99.90;;;;;;4991830;28;20207;-66
2021/09/13 06:15:17;;;;;;;14.10;12.70;;;16.70;99.90;;;;;;4992916;28;20259;-67
2021/09/13 06:17:43;;;;;;;14.23;12.93;;;16.80;99.90;;;;;;4992205;28;20180;-66
2021/09/13 06:20:10;;;;;;;15.63;14.23;;;16.80;99.90;;;;;;4993405;28;20306;-67
2021/09/13 06:22:36;;;;;;;15.97;14.57;;;16.80;99.90;;;;;;4991888;28;20192;-66
2021/09/13 06:25:02;;;;;;;16.53;14.77;;;16.80;99.90;;;;;;4993236;28;20425;-66
2021/09/13 06:27:27;;;;;;;14.80;13.50;;;16.90;99.90;;;;;;4991769;28;20279;-71
2021/09/13 06:29:53;;;;;;;17.13;15.70;;;16.90;99.90;;;;;;4992207;28;20568;-66
2021/09/13 06:32:19;;;;;;;16.80;15.20;;;16.90;99.90;;;;;;4992924;28;20266;-66
2021/09/13 06:34:45;;;;;;;17.00;15.30;;;16.90;99.90;;;;;;4992236;28;20180;-66
2021/09/13 06:37:10;;;;;;;16.47;14.67;;;16.90;99.90;;;;;;4992917;28;20196;-66
2021/09/13 06:39:36;;;;;;;19.10;17.20;;;16.90;99.90;;;;;;4990994;28;20191;-67
2021/09/13 06:42:03;;;;;;;17.37;15.70;;;17.00;99.90;;;;;;4991928;28;20518;-67
2021/09/13 06:44:30;;;;;;;18.00;15.60;;;17.00;99.90;;;;;;4991402;28;20415;-70
2021/09/13 06:49:28;;;;;;;18.83;17.03;;;17.20;99.90;;;;;;4991295;28;20780;-71
2021/09/13 06:51:54;;;;;;;18.73;16.90;;;17.30;99.90;;;;;;4964498;28;20416;-67
2021/09/13 06:54:19;;;;;;;17.80;16.00;;;17.30;99.90;;;;;;4991024;28;20499;-66
2021/09/13 06:56:45;;;;;;;17.20;15.00;;;17.30;99.90;;;;;;4990797;28;20184;-66
2021/09/13 06:59:15;;;;;;;18.40;16.07;;;17.40;99.90;;;;;;4974287;28;20243;-66
2021/09/13 07:01:41;;;;;;;18.53;16.63;;;17.40;99.90;;;;;;4973104;28;20473;-69
2021/09/13 07:04:07;;;;;;;17.27;15.57;;;17.50;99.90;;;;;;4991855;28;20409;-68
2021/09/13 07:06:33;;;;;;;18.87;17.00;;;17.50;99.90;;;;;;4990454;28;20512;-68
2021/09/13 07:08:59;;;;;;;19.63;17.03;;;17.50;99.90;;;;;;4991827;28;20439;-68
2021/09/13 07:11:25;;;;;;;18.83;16.83;;;17.50;99.90;;;;;;4991835;28;20427;-68
2021/09/13 07:13:51;;;;;;;18.67;16.67;;;17.50;99.90;;;;;;4991878;28;20189;-67
2021/09/13 07:16:19;;;;;;;19.80;17.70;;;17.50;99.90;;;;;;4992889;28;20423;-67
2021/09/13 07:18:45;;;;;;;19.97;18.07;;;17.50;99.90;;;;;;4991915;28;20419;-68
2021/09/13 07:21:11;;;;;;;19.93;17.83;;;17.50;99.90;;;;;;4992672;28;20743;-67
2021/09/13 07:23:37;;;;;;;19.63;17.27;;;17.60;99.90;;;;;;4991451;28;20266;-68
2021/09/13 07:26:03;;;;;;;20.23;18.23;;;17.60;99.90;;;;;;4992628;28;20245;-68
2021/09/13 07:28:28;;;;;;;19.37;17.40;;;17.70;99.90;;;;;;4991943;28;20180;-75
2021/09/13 07:30:54;;;;;;;20.60;18.60;;;17.70;99.90;;;;;;4991465;28;20918;-67
2021/09/13 07:33:20;;;;;;;21.50;19.30;;;17.70;99.90;;;;;;4974849;28;20545;-67
2021/09/13 07:35:46;;;;;;;18.40;16.40;;;17.70;99.90;;;;;;4991541;28;20203;-68
2021/09/13 07:38:11;;;;;;;20.83;17.47;;;17.80;99.90;;;;;;4992299;28;20187;-67
2021/09/13 07:40:37;;;;;;;20.03;18.03;;;17.80;99.90;;;;;;4974192;28;20180;-68
2021/09/13 07:43:04;;;;;;;21.47;19.20;;;17.90;99.90;;;;;;4992556;28;20176;-68
2021/09/13 07:45:29;;;;;;;21.00;18.83;;;17.90;99.90;;;;;;4991751;28;20306;-75
2021/09/13 07:47:55;;;;;;;22.57;18.07;;;18.00;99.90;;;;;;4992003;28;20861;-68
2021/09/13 07:50:21;;;;;;;23.60;21.10;;;18.00;99.90;;;;;;4992494;28;20171;-68
2021/09/13 07:52:47;;;;;;;23.30;20.43;;;18.00;99.90;;;;;;4991126;28;20207;-68
2021/09/13 07:55:12;;;;;;;25.10;20.53;;;18.00;99.90;;;;;;4975103;28;20639;-68
2021/09/13 07:57:38;;;;;;;23.67;21.07;;;18.10;99.90;;;;;;4974291;28;20226;-68
2021/09/13 08:00:05;;;;;;;28.90;22.40;;;18.10;99.90;;;;;;4991905;28;20187;-68
2021/09/13 08:02:31;;;;;;;24.23;21.23;;;18.10;99.90;;;;;;4992164;28;20584;-74
2021/09/13 08:05:01;;;;;;;24.97;21.67;;;18.00;99.90;;;;;;4991820;28;20517;-68
2021/09/13 08:07:27;;;;;;;26.03;22.33;;;18.10;99.90;;;;;;4974913;28;20455;-68
2021/09/13 08:09:52;;;;;;;22.87;20.47;;;18.10;99.90;;;;;;4992232;28;20414;-68
2021/09/13 08:12:18;;;;;;;26.33;21.10;;;18.20;99.90;;;;;;4995654;28;20411;-67
2021/09/13 08:14:44;;;;;;;25.50;21.20;;;18.30;99.90;;;;;;4994955;28;20654;-67
2021/09/13 08:17:10;;;;;;;23.70;21.10;;;18.30;99.90;;;;;;4995584;28;20474;-68
2021/09/13 08:19:39;;;;;;;24.63;21.17;;;18.40;99.90;;;;;;4994817;28;20970;-68
2021/09/13 08:22:06;;;;;;;26.57;22.20;;;18.50;99.90;;;;;;4995539;28;20406;-68
2021/09/13 08:24:33;;;;;;;25.60;21.97;;;18.60;99.90;;;;;;4995217;28;20411;-75
2021/09/13 08:26:59;;;;;;;25.00;22.30;;;18.60;99.90;;;;;;4994569;28;20459;-68
2021/09/13 08:29:25;;;;;;;25.70;21.47;;;18.60;99.90;;;;;;4994877;28;20425;-68
2021/09/13 08:31:52;;;;;;;23.87;21.20;;;18.70;99.90;;;;;;4994471;28;20526;-68
2021/09/13 08:34:18;;;;;;;24.70;22.00;;;18.80;99.90;;;;;;4995195;28;20620;-68
2021/09/13 08:36:47;;;;;;;23.80;20.83;;;18.90;99.90;;;;;;4994475;28;20454;-68
2021/09/13 08:39:14;;;;;;;27.67;23.33;;;18.80;99.90;;;;;;4995298;28;20399;-68
2021/09/13 08:41:44;;;;;;;26.77;20.43;;;18.90;99.90;;;;;;4994742;28;20426;-68
2021/09/13 08:44:12;;;;;;;26.70;21.23;;;19.00;99.90;;;;;;4995318;28;20425;-68
2021/09/13 08:49:13;;;;;;;26.97;21.70;;;18.90;99.90;;;;;;4995125;28;20899;-68
2021/09/13 08:51:38;;;;;;;23.73;20.47;;;19.10;99.90;;;;;;4994383;28;20398;-68
2021/09/13 08:54:11;;;;;;;26.10;19.90;;;19.20;99.90;;;;;;4995060;28;20906;-68
2021/09/13 08:56:41;;;;;;;23.50;20.53;;;19.30;99.90;;;;;;4994317;28;20176;-75
2021/09/13 08:59:16;;;;;;;25.37;21.70;;;19.40;99.90;;;;;;4994732;28;20427;-68
2021/09/13 09:01:43;;;;;;;23.80;20.90;;;19.50;99.90;;;;;;4976732;28;20414;-68
2021/09/13 09:04:13;;;;;;;26.67;19.83;;;19.50;99.90;;;;;;4994706;28;20419;-67
2021/09/13 09:06:41;;;;;;;22.27;19.90;;;19.60;99.90;;;;;;4994069;28;20478;-69
2021/09/13 09:09:09;;;;;;;21.93;19.50;;;19.70;99.90;;;;;;4994780;28;20778;-68
2021/09/13 09:12:06;;;;;;;23.80;20.90;;;19.80;99.90;;;;;;4994401;28;20427;-75
2021/09/13 09:14:34;;;;;;;20.77;18.60;;;19.90;99.90;;;;;;4961252;28;20771;-67
2021/09/13 09:17:19;;;;;;;19.93;17.83;;;19.90;99.90;;;;;;4993677;28;20493;-68
2021/09/13 09:19:46;;;;;;;21.80;19.33;;;20.00;99.90;;;;;;4993843;28;20410;-68
2021/09/13 09:22:21;;;;;;;21.47;19.23;;;20.20;99.90;;;;;;4994035;28;20517;-68
2021/09/13 09:24:48;;;;;;;22.10;19.60;;;20.40;99.90;;;;;;4993319;28;20453;-68
2021/09/13 09:27:15;;;;;;;22.03;19.27;;;20.60;99.90;;;;;;4994012;28;20966;-68
2021/09/13 09:29:41;;;;;;;21.57;19.27;;;20.80;99.60;;;;;;4993659;28;20418;-68
2021/09/13 09:32:06;;;;;;;21.10;18.90;;;21.00;99.90;;;;;;4977017;28;20407;-67
2021/09/13 09:34:34;;;;;;;20.47;18.33;;;21.10;99.90;;;;;;4994023;28;20434;-68
2021/09/13 09:37:00;;;;;;;18.80;16.90;;;21.20;99.90;;;;;;4992599;28;20191;-68
2021/09/13 09:39:29;;;;;;;16.47;14.77;;;21.40;99.90;;;;;;4993935;28;20399;-67
2021/09/13 09:41:56;;;;;;;13.43;12.10;;;21.50;99.40;;;;;;4993557;28;20427;-68
2021/09/13 09:44:23;;;;;;;12.67;11.53;;;21.70;98.20;;;;;;4994089;28;20426;-68
2021/09/13 09:46:50;;;;;;;12.70;11.53;;;21.80;97.50;;;;;;4975262;28;20473;-68
2021/09/13 09:49:18;;;;;;;12.73;11.60;;;22.00;97.20;;;;;;4976426;28;20473;-68
2021/09/13 09:51:49;;;;;;;11.97;10.90;;;22.20;96.20;;;;;;4993360;28;20465;-68
2021/09/13 09:54:17;;;;;;;12.77;11.60;;;22.40;94.30;;;;;;4993947;28;20422;-68
2021/09/13 09:57:07;;;;;;;11.50;10.47;;;22.60;93.20;;;;;;4992819;28;20427;-68
2021/09/13 09:59:35;;;;;;;11.33;10.33;;;22.80;93.80;;;;;;4993943;28;20486;-67
2021/09/13 10:02:14;;;;;;;12.00;10.60;;;23.00;94.10;;;;;;4992975;28;20443;-67
2021/09/13 10:04:41;;;;;;;12.20;11.10;;;23.20;93.10;;;;;;4993023;28;20497;-75
2021/09/13 10:07:07;;;;;;;12.40;11.30;;;23.40;93.70;;;;;;4993095;28;20477;-67
2021/09/13 10:09:33;;;;;;;12.00;11.10;;;23.60;91.80;;;;;;4993918;28;20414;-67
2021/09/13 10:12:02;;;;;;;12.50;11.40;;;23.80;93.00;;;;;;4975316;28;20450;-67
2021/09/13 10:14:30;;;;;;;13.13;12.00;;;24.00;92.00;;;;;;4993376;28;20743;-67
2021/09/13 10:16:57;;;;;;;12.50;11.40;;;24.20;92.80;;;;;;4992359;28;20414;-67
2021/09/13 10:19:24;;;;;;;13.93;11.00;;;24.40;93.10;;;;;;4993422;28;20419;-67
2021/09/13 10:21:51;;;;;;;12.40;11.30;;;24.50;90.50;;;;;;4992511;28;20435;-67
2021/09/13 10:24:22;;;;;;;11.10;9.97;;;24.50;86.80;;;;;;4992835;28;20489;-67
2021/09/13 10:26:53;;;;;;;12.67;11.67;;;24.50;86.90;;;;;;4992327;28;20787;-67
2021/09/13 10:29:27;;;;;;;12.67;11.70;;;24.50;90.10;;;;;;4993319;28;20395;-67
2021/09/13 10:31:53;;;;;;;12.87;11.80;;;24.50;89.30;;;;;;4992057;28;20407;-68
2021/09/13 10:34:22;;;;;;;11.37;10.37;;;24.60;88.50;;;;;;4992882;28;20427;-67
2021/09/13 10:37:14;;;;;;;9.40;8.70;;;24.60;91.10;;;;;;4992384;28;20914;-67
2021/09/13 10:40:06;;;;;;;9.30;8.60;;;24.80;88.70;;;;;;4992860;28;20407;-75
2021/09/13 10:42:44;;;;;;;10.10;9.13;;;25.10;89.80;;;;;;4993137;28;20402;-67
2021/09/13 10:45:31;;;;;;;10.23;9.43;;;25.20;82.20;;;;;;4993114;28;20407;-67
2021/09/13 10:47:57;;;;;;;10.63;9.73;;;25.20;86.80;;;;;;4992317;28;20403;-67
2021/09/13 10:50:46;;;;;;;12.07;11.13;;;25.30;84.40;;;;;;4992912;28;20423;-68
2021/09/13 10:53:17;;;;;;;12.00;11.00;;;25.30;79.60;;;;;;4992960;28;20184;-68
2021/09/13 10:55:52;;;;;;;9.53;8.83;;;25.20;82.50;;;;;;4974737;28;20426;-75
2021/09/13 10:58:20;;;;;;;8.80;8.10;;;25.20;81.70;;;;;;4992713;28;20426;-68
2021/09/13 11:00:45;;;;;;;8.57;7.93;;;25.30;82.10;;;;;;4992020;28;20898;-69
2021/09/13 11:03:23;;;;;;;10.73;9.83;;;25.30;80.60;;;;;;4992632;28;20510;-68
2021/09/13 11:06:18;;;;;;;6.20;5.80;;;25.40;82.00;;;;;;4991923;28;20227;-68
2021/09/13 11:08:54;;;;;;;6.17;5.77;;;25.40;78.00;;;;;;4963752;28;20443;-75
2021/09/13 11:11:44;;;;;;;6.10;5.80;;;25.50;80.00;;;;;;4956283;28;20392;-68
2021/09/13 11:14:19;;;;;;;8.40;7.80;;;25.60;74.20;;;;;;4973046;28;20407;-68
2021/09/13 11:16:50;;;;;;;7.90;7.40;;;25.50;75.90;;;;;;4972588;28;20424;-75
2021/09/13 11:19:17;;;;;;;6.33;5.93;;;25.50;79.30;;;;;;4973292;28;20408;-68
2021/09/13 11:21:48;;;;;;;6.27;5.77;;;25.50;80.30;;;;;;4972999;28;20412;-75
2021/09/13 11:24:21;;;;;;;5.20;4.90;;;25.60;77.30;;;;;;4973395;28;20397;-68
2021/09/13 11:26:49;;;;;;;4.63;4.23;;;25.50;78.00;;;;;;4987397;28;20466;-70
2021/09/13 11:29:33;;;;;;;5.83;5.53;;;25.60;77.60;;;;;;4992718;28;20426;-68
2021/09/13 11:32:03;;;;;;;4.90;4.50;;;25.60;74.40;;;;;;4991901;28;20411;-68
2021/09/13 11:34:41;;;;;;;5.10;4.70;;;25.60;80.60;;;;;;4992281;28;20415;-68
2021/09/13 11:37:30;;;;;;;5.33;4.93;;;25.60;77.50;;;;;;4991938;28;20446;-68
2021/09/13 11:40:01;;;;;;;5.43;5.13;;;25.60;75.20;;;;;;4991870;28;20523;-68
2021/09/13 11:42:32;;;;;;;6.00;5.60;;;25.60;74.20;;;;;;4992491;28;20411;-68
2021/09/13 11:45:11;;;;;;;4.90;4.60;;;25.60;71.00;;;;;;4994591;28;20403;-68
2021/09/13 11:47:37;;;;;;;6.63;6.10;;;25.50;70.10;;;;;;4996283;28;20917;-68
2021/09/13 11:50:06;;;;;;;5.80;5.50;;;25.40;74.80;;;;;;4995416;28;20417;-68
2021/09/13 11:52:33;;;;;;;6.60;6.13;;;25.30;76.00;;;;;;4995660;28;20429;-68
2021/09/13 11:55:06;;;;;;;5.57;5.10;;;25.30;76.80;;;;;;4995165;28;20937;-68
2021/09/13 11:57:36;;;;;;;4.57;4.37;;;25.40;73.50;;;;;;4995979;28;20498;-67
2021/09/13 12:00:11;;;;;;;4.70;4.40;;;25.40;72.00;;;;;;4995269;28;20430;-68
2021/09/13 12:02:45;;;;;;;4.90;4.60;;;25.40;74.10;;;;;;4995991;28;20425;-68
2021/09/13 12:05:20;;;;;;;5.27;4.93;;;25.40;72.00;;;;;;4995332;28;20462;-68
2021/09/13 12:07:48;;;;;;;5.60;5.30;;;25.30;70.40;;;;;;4995684;28;20406;-75
2021/09/13 12:10:25;;;;;;;5.43;5.03;;;25.30;73.60;;;;;;4995860;28;20411;-68
2021/09/13 12:12:59;;;;;;;5.23;4.93;;;25.20;68.90;;;;;;4995096;28;20500;-67
2021/09/13 12:15:27;;;;;;;5.70;5.40;;;25.00;69.90;;;;;;4995791;28;20899;-68
2021/09/13 12:17:54;;;;;;;5.83;5.33;;;25.00;74.20;;;;;;4994807;28;20469;-68
2021/09/13 12:20:29;;;;;;;5.27;4.97;;;25.10;76.40;;;;;;4995648;28;20434;-68
2021/09/13 12:23:03;;;;;;;5.67;5.27;;;25.10;76.70;;;;;;4994904;28;20756;-68
2021/09/13 12:25:51;;;;;;;6.30;5.80;;;25.10;75.70;;;;;;4995312;28;20945;-68
2021/09/13 12:28:27;;;;;;;6.63;6.10;;;25.00;76.30;;;;;;4995400;28;20415;-68
2021/09/13 12:30:58;;;;;;;5.57;5.27;;;25.00;79.20;;;;;;4989593;28;20399;-68
2021/09/13 12:33:47;;;;;;;5.77;5.30;;;25.10;80.50;;;;;;4995177;28;20481;-68
2021/09/13 12:36:20;;;;;;;7.30;6.80;;;25.00;78.10;;;;;;4977587;28;20489;-68
2021/09/13 12:38:51;;;;;;;6.43;6.07;;;25.00;80.00;;;;;;4995701;28;20799;-73
2021/09/13 12:41:37;;;;;;;5.57;5.17;;;25.00;77.30;;;;;;4995422;28;20399;-68
2021/09/13 12:44:21;;;;;;;7.10;6.70;;;24.90;78.40;;;;;;4961106;28;20403;-68